Time;durP1;ratioP1;P1;durP2;ratioP2;P2;SDS_P1;SDS_P2;PMS_P1;PMS_P2;Temp;Humidity;BMP_temperature;BMP_pressure;BME280_temperature;BME280_humidity;BME280_pressure;Samples;Min_cycle;Max_cycle;Signal;HPM_P1;HPM_P2
2022/09/28 05:00:13;;;;;;;1.67;0.70;;;11.40;97.20;;;;;;1741104;28;20179;-71
2022/09/28 05:01:07;;;;;;;1.25;0.70;;;11.40;97.20;;;;;;1741137;28;20577;-71
2022/09/28 05:01:58;;;;;;;3.15;0.88;;;11.40;97.20;;;;;;1740697;28;20191;-71
2022/09/28 05:02:49;;;;;;;1.40;0.60;;;11.40;97.20;;;;;;1740255;28;20711;-71
2022/09/28 05:03:41;;;;;;;1.33;1.00;;;11.40;97.20;;;;;;1740529;28;20642;-71
2022/09/28 05:04:32;;;;;;;2.28;1.08;;;11.40;97.20;;;;;;1734123;28;20867;-70
2022/09/28 05:05:23;;;;;;;1.90;0.77;;;11.40;97.20;;;;;;1734517;28;20710;-70
2022/09/28 05:06:15;;;;;;;2.45;0.80;;;11.40;97.20;;;;;;1740247;28;20199;-70
2022/09/28 05:07:06;;;;;;;1.10;0.65;;;11.40;97.20;;;;;;1740131;28;20260;-70
2022/09/28 05:07:58;;;;;;;1.42;0.70;;;11.40;97.20;;;;;;1740289;28;20594;-70
2022/09/28 05:08:49;;;;;;;1.00;0.70;;;11.40;97.20;;;;;;1740324;28;20286;-70
2022/09/28 05:09:40;;;;;;;1.33;0.60;;;11.40;97.20;;;;;;1740520;28;20195;-70
2022/09/28 05:10:32;;;;;;;1.57;1.00;;;11.40;97.20;;;;;;1740564;28;20207;-70
2022/09/28 05:11:23;;;;;;;1.35;0.60;;;11.40;97.20;;;;;;1740633;28;20209;-70
2022/09/28 05:12:14;;;;;;;3.77;0.90;;;11.40;97.20;;;;;;1740685;28;20306;-70
2022/09/28 05:13:05;;;;;;;2.05;0.60;;;11.40;97.20;;;;;;1740522;28;20449;-70
2022/09/28 05:13:57;;;;;;;1.45;0.55;;;11.40;97.20;;;;;;1739845;28;20199;-70
2022/09/28 05:14:48;;;;;;;2.05;0.70;;;11.40;97.20;;;;;;1740384;28;20688;-70
2022/09/28 05:15:42;;;;;;;1.20;0.53;;;11.40;97.20;;;;;;1740552;28;20663;-70
2022/09/28 05:16:32;;;;;;;1.17;0.60;;;11.40;97.20;;;;;;1740423;28;20233;-70
2022/09/28 05:17:24;;;;;;;0.90;0.60;;;11.40;97.20;;;;;;1740517;28;20237;-70
2022/09/28 05:18:15;;;;;;;2.63;0.80;;;11.40;97.20;;;;;;1740406;28;20446;-70
2022/09/28 05:19:06;;;;;;;2.00;0.63;;;11.40;97.20;;;;;;1740459;28;20187;-70
2022/09/28 05:19:58;;;;;;;2.10;0.60;;;11.40;97.20;;;;;;1740396;28;20234;-70
2022/09/28 05:20:50;;;;;;;4.90;0.90;;;11.40;97.20;;;;;;1740437;28;20278;-70
2022/09/28 05:21:43;;;;;;;1.85;0.70;;;11.40;97.20;;;;;;1740492;28;20207;-70
2022/09/28 05:22:34;;;;;;;1.35;0.82;;;11.30;97.20;;;;;;1740494;28;20229;-70
2022/09/28 05:23:25;;;;;;;1.17;0.60;;;11.30;97.20;;;;;;1740577;28;20234;-71
2022/09/28 05:24:17;;;;;;;1.10;0.60;;;11.30;97.20;;;;;;1739938;28;20206;-71
2022/09/28 05:25:08;;;;;;;1.98;0.73;;;11.40;97.20;;;;;;1740287;28;20703;-71
2022/09/28 05:26:01;;;;;;;4.00;0.80;;;11.40;97.20;;;;;;1740270;28;20241;-70
2022/09/28 05:26:52;;;;;;;2.00;0.80;;;11.40;97.20;;;;;;1738519;28;20253;-70
2022/09/28 05:27:44;;;;;;;1.20;0.60;;;11.40;97.20;;;;;;1740404;28;20211;-71
2022/09/28 05:28:35;;;;;;;0.90;0.68;;;11.40;97.20;;;;;;1740570;28;20207;-71
2022/09/28 05:29:26;;;;;;;1.73;0.77;;;11.40;97.20;;;;;;1740555;28;20203;-71
2022/09/28 05:30:17;;;;;;;1.20;0.63;;;11.40;97.20;;;;;;1740326;28;20254;-72
2022/09/28 05:31:10;;;;;;;1.17;0.63;;;11.40;97.20;;;;;;1739924;28;20199;-71
2022/09/28 05:32:01;;;;;;;4.82;0.65;;;11.40;97.20;;;;;;1740090;28;20466;-71
2022/09/28 05:32:53;;;;;;;1.30;0.80;;;11.40;97.20;;;;;;1740556;28;20202;-71
2022/09/28 05:33:44;;;;;;;1.65;0.70;;;11.40;97.20;;;;;;1739827;28;20445;-71
2022/09/28 05:34:35;;;;;;;2.33;0.83;;;11.40;97.20;;;;;;1740503;28;20199;-71
2022/09/28 05:35:26;;;;;;;3.10;1.00;;;11.40;97.20;;;;;;1740422;28;20211;-70
2022/09/28 05:36:18;;;;;;;1.10;0.70;;;11.30;97.20;;;;;;1740359;28;20203;-70
2022/09/28 05:37:09;;;;;;;1.35;0.70;;;11.40;97.20;;;;;;1739902;28;20356;-71
2022/09/28 05:38:04;;;;;;;1.67;0.70;;;11.40;97.20;;;;;;1740233;28;20199;-71
2022/09/28 05:38:55;;;;;;;1.38;0.60;;;11.40;97.20;;;;;;1740415;28;20203;-71
2022/09/28 05:39:47;;;;;;;0.90;0.55;;;11.40;97.20;;;;;;1741966;28;20212;-72
2022/09/28 05:40:38;;;;;;;0.90;0.60;;;11.40;97.20;;;;;;1741846;28;20207;-71
2022/09/28 05:41:30;;;;;;;2.00;0.60;;;11.40;97.20;;;;;;1741839;28;20221;-70
2022/09/28 05:42:20;;;;;;;1.27;0.70;;;11.40;97.20;;;;;;1741693;28;20461;-70
2022/09/28 05:43:12;;;;;;;1.67;0.90;;;11.40;97.20;;;;;;1741446;28;20195;-70
2022/09/28 05:44:08;;;;;;;1.83;0.70;;;11.40;97.20;;;;;;1741323;28;20203;-71
2022/09/28 05:44:59;;;;;;;1.83;1.27;;;11.40;97.20;;;;;;1741913;28;20610;-71
2022/09/28 05:45:50;;;;;;;1.17;0.70;;;11.40;97.20;;;;;;1741604;28;20242;-71
2022/09/28 05:46:43;;;;;;;1.37;0.70;;;11.40;97.20;;;;;;1741769;28;20199;-71
2022/09/28 05:47:37;;;;;;;2.28;0.80;;;11.40;97.20;;;;;;1741768;28;20264;-71
2022/09/28 05:48:29;;;;;;;0.90;0.70;;;11.40;97.20;;;;;;1741650;28;20210;-71
2022/09/28 05:51:26;;;;;;;1.13;0.80;;;11.40;97.20;;;;;;1745940;28;20655;-71
2022/09/28 05:52:17;;;;;;;2.08;0.75;;;11.50;97.20;;;;;;1744399;28;20689;-71
2022/09/28 05:53:10;;;;;;;2.42;0.77;;;11.40;97.20;;;;;;1741727;28;20704;-71
2022/09/28 05:54:01;;;;;;;3.17;0.82;;;11.40;97.20;;;;;;1741782;28;20566;-71
2022/09/28 05:54:52;;;;;;;2.23;1.10;;;11.40;97.20;;;;;;1741552;28;20568;-71
2022/09/28 05:55:43;;;;;;;1.15;0.90;;;11.40;97.20;;;;;;1741555;28;20230;-71
2022/09/28 05:56:35;;;;;;;1.23;0.90;;;11.40;97.20;;;;;;1741480;28;20194;-71
2022/09/28 05:57:25;;;;;;;4.53;0.93;;;11.50;97.20;;;;;;1741588;28;20227;-71
2022/09/28 05:58:17;;;;;;;2.07;0.80;;;11.40;97.20;;;;;;1741650;28;20205;-71
2022/09/28 05:59:08;;;;;;;1.80;0.90;;;11.50;97.20;;;;;;1741827;28;20202;-71
2022/09/28 06:00:00;;;;;;;2.10;1.00;;;11.50;97.20;;;;;;1741171;28;20314;-71
2022/09/28 06:00:53;;;;;;;3.38;1.15;;;11.50;97.20;;;;;;1741625;28;20784;-73
2022/09/28 06:01:46;;;;;;;2.30;0.90;;;11.50;97.20;;;;;;1741593;28;20205;-71
2022/09/28 06:02:38;;;;;;;1.50;1.23;;;11.50;97.20;;;;;;1741711;28;20203;-72
2022/09/28 06:03:29;;;;;;;2.50;1.00;;;11.50;97.20;;;;;;1747182;28;20222;-71
2022/09/28 06:04:21;;;;;;;1.10;0.80;;;11.50;97.20;;;;;;1745661;28;20206;-71
2022/09/28 06:05:13;;;;;;;2.10;1.20;;;11.50;97.20;;;;;;1742097;28;20199;-71
2022/09/28 06:06:03;;;;;;;1.70;0.77;;;11.50;97.20;;;;;;1741532;28;20579;-71
2022/09/28 06:06:55;;;;;;;2.50;1.17;;;11.50;97.20;;;;;;1741291;28;20824;-71
2022/09/28 06:07:46;;;;;;;1.77;0.80;;;11.50;97.20;;;;;;1741593;28;20445;-71
2022/09/28 06:08:41;;;;;;;2.30;1.00;;;11.50;97.20;;;;;;1741628;28;20213;-71
2022/09/28 06:09:32;;;;;;;2.08;0.93;;;11.50;97.20;;;;;;1741161;28;20191;-71
2022/09/28 06:10:24;;;;;;;1.47;1.10;;;11.50;97.20;;;;;;1736721;28;20232;-71
2022/09/28 06:11:16;;;;;;;1.50;0.95;;;11.50;97.20;;;;;;1735647;28;20240;-71
2022/09/28 06:12:07;;;;;;;1.95;1.30;;;11.50;97.20;;;;;;1739640;28;20198;-71
2022/09/28 06:12:59;;;;;;;1.30;1.10;;;11.50;97.20;;;;;;1737638;28;20245;-71
2022/09/28 06:13:52;;;;;;;2.15;1.10;;;11.50;97.20;;;;;;1739472;28;20196;-71
2022/09/28 06:14:44;;;;;;;1.80;0.90;;;11.50;97.20;;;;;;1741821;28;20290;-71
2022/09/28 06:15:36;;;;;;;1.98;0.95;;;11.50;97.20;;;;;;1741585;28;20581;-71
2022/09/28 06:16:27;;;;;;;1.70;1.00;;;11.60;97.20;;;;;;1736334;28;20230;-71
2022/09/28 06:17:19;;;;;;;1.40;1.00;;;11.60;97.20;;;;;;1742947;28;20215;-71
2022/09/28 06:18:14;;;;;;;2.60;1.20;;;11.60;97.20;;;;;;1741254;28;20203;-71
2022/09/28 06:19:04;;;;;;;2.20;1.20;;;11.60;97.20;;;;;;1741031;28;20231;-71
2022/09/28 06:19:56;;;;;;;1.50;0.90;;;11.60;97.20;;;;;;1740947;28;20187;-71
2022/09/28 06:20:48;;;;;;;2.45;1.10;;;11.60;97.20;;;;;;1748639;28;20241;-71
2022/09/28 06:21:39;;;;;;;1.83;1.38;;;11.60;97.20;;;;;;1748353;28;20256;-71
2022/09/28 06:22:30;;;;;;;1.93;0.90;;;11.60;97.20;;;;;;1740464;28;20272;-72
2022/09/28 06:23:21;;;;;;;2.83;1.25;;;11.60;97.20;;;;;;1739877;28;20222;-72
2022/09/28 06:24:13;;;;;;;4.83;1.33;;;11.60;97.20;;;;;;1741866;28;20191;-71
2022/09/28 06:25:05;;;;;;;2.97;1.15;;;11.60;97.20;;;;;;1742946;28;20573;-72
2022/09/28 06:25:59;;;;;;;1.92;1.10;;;11.60;97.20;;;;;;1747743;28;20221;-71
2022/09/28 06:26:49;;;;;;;4.50;1.15;;;11.60;97.20;;;;;;1746520;28;20199;-72
2022/09/28 06:27:41;;;;;;;1.40;1.00;;;11.50;97.20;;;;;;1741844;28;20202;-71
2022/09/28 06:28:32;;;;;;;1.30;1.13;;;11.60;97.20;;;;;;1741951;28;20203;-71
2022/09/28 06:29:23;;;;;;;4.47;1.20;;;11.50;97.20;;;;;;1741763;28;20285;-71
2022/09/28 06:30:14;;;;;;;3.00;1.45;;;11.50;97.20;;;;;;1741165;28;20211;-72
2022/09/28 06:31:06;;;;;;;1.30;1.07;;;11.50;97.20;;;;;;1741796;28;20195;-71
2022/09/28 06:31:57;;;;;;;2.15;1.15;;;11.50;97.20;;;;;;1743024;28;21225;-71
2022/09/28 06:32:52;;;;;;;1.10;0.90;;;11.50;97.20;;;;;;1748883;28;20712;-71
2022/09/28 06:33:43;;;;;;;1.90;0.98;;;11.50;97.20;;;;;;1748951;28;20431;-71
2022/09/28 06:34:35;;;;;;;1.53;1.20;;;11.50;97.20;;;;;;1748652;28;20286;-71
2022/09/28 06:35:29;;;;;;;1.70;1.10;;;11.50;97.20;;;;;;1745904;28;20210;-71
2022/09/28 06:36:21;;;;;;;1.45;1.15;;;11.50;97.20;;;;;;1748466;28;20265;-71
2022/09/28 06:37:11;;;;;;;2.30;1.20;;;11.60;97.20;;;;;;1746871;28;20202;-71
2022/09/28 06:38:04;;;;;;;4.17;1.20;;;11.60;97.20;;;;;;1743375;28;20668;-71
2022/09/28 06:38:54;;;;;;;1.88;1.10;;;11.60;97.20;;;;;;1741840;28;20203;-71
2022/09/28 06:39:46;;;;;;;2.37;1.67;;;11.60;97.20;;;;;;1741343;28;20274;-71
2022/09/28 06:40:38;;;;;;;1.90;1.30;;;11.60;97.20;;;;;;1741795;28;20206;-71
2022/09/28 06:41:29;;;;;;;2.45;1.20;;;11.60;97.20;;;;;;1741905;28;20696;-71
2022/09/28 06:42:20;;;;;;;1.90;1.20;;;11.60;97.20;;;;;;1741816;28;20231;-71
2022/09/28 06:43:14;;;;;;;2.00;1.23;;;11.60;97.20;;;;;;1741950;28;20278;-71
2022/09/28 06:44:05;;;;;;;2.75;1.27;;;11.60;97.20;;;;;;1741666;28;20460;-71
2022/09/28 06:44:58;;;;;;;2.70;1.00;;;11.60;97.20;;;;;;1741907;28;20222;-71
2022/09/28 06:45:51;;;;;;;1.63;1.23;;;11.60;97.20;;;;;;1736278;28;20651;-71
2022/09/28 06:46:43;;;;;;;2.22;1.60;;;11.60;97.20;;;;;;1734589;28;20210;-71
2022/09/28 06:47:34;;;;;;;2.40;1.17;;;11.60;97.20;;;;;;1735080;28;20670;-71
2022/09/28 06:48:27;;;;;;;3.33;1.20;;;11.60;97.20;;;;;;1734819;28;20829;-71
2022/09/28 06:49:18;;;;;;;1.40;1.08;;;11.60;97.20;;;;;;1735091;28;20208;-71
2022/09/28 06:50:13;;;;;;;3.43;1.37;;;11.70;97.20;;;;;;1734175;28;20286;-71
2022/09/28 06:51:05;;;;;;;4.13;1.45;;;11.70;97.20;;;;;;1734969;28;20187;-71
2022/09/28 06:51:56;;;;;;;2.65;1.30;;;11.70;97.20;;;;;;1734800;28;20666;-71
2022/09/28 06:52:50;;;;;;;2.20;1.10;;;11.70;97.20;;;;;;1734822;28;20211;-71
2022/09/28 06:53:42;;;;;;;2.42;1.08;;;11.70;97.20;;;;;;1734908;28;20287;-71
2022/09/28 06:54:32;;;;;;;2.83;1.15;;;11.70;97.20;;;;;;1734968;28;20230;-71
2022/09/28 06:55:25;;;;;;;6.87;1.33;;;11.70;97.20;;;;;;1738056;28;20282;-71
2022/09/28 06:56:16;;;;;;;2.20;1.40;;;11.70;97.20;;;;;;1741747;28;20215;-71
2022/09/28 06:57:08;;;;;;;2.50;1.00;;;11.70;97.20;;;;;;1741543;28;20237;-71
2022/09/28 06:58:00;;;;;;;2.35;1.40;;;11.70;97.20;;;;;;1741710;28;20199;-71
2022/09/28 06:58:52;;;;;;;2.00;1.27;;;11.70;97.20;;;;;;1741730;28;20665;-71
2022/09/28 06:59:43;;;;;;;2.35;1.10;;;11.80;97.20;;;;;;1740782;28;20229;-71
2022/09/28 07:00:37;;;;;;;1.80;1.48;;;11.80;97.20;;;;;;1741681;28;20260;-71
2022/09/28 07:01:28;;;;;;;3.10;1.25;;;11.80;97.20;;;;;;1741575;28;20207;-71
2022/09/28 07:02:21;;;;;;;1.50;1.10;;;11.80;97.20;;;;;;1741558;28;20700;-71
2022/09/28 07:03:14;;;;;;;11.93;1.48;;;11.80;97.20;;;;;;1741733;28;20199;-71
2022/09/28 07:04:07;;;;;;;2.10;1.33;;;11.80;97.20;;;;;;1741605;28;20199;-71
2022/09/28 07:04:58;;;;;;;3.78;1.40;;;11.80;97.20;;;;;;1741730;28;20211;-71
2022/09/28 07:05:52;;;;;;;2.07;1.30;;;11.90;97.20;;;;;;1741841;28;20278;-71
2022/09/28 07:06:46;;;;;;;2.78;1.10;;;11.90;97.20;;;;;;1747920;28;20533;-71
2022/09/28 07:07:39;;;;;;;2.05;1.20;;;11.90;97.20;;;;;;1748694;28;20233;-71
2022/09/28 07:08:30;;;;;;;2.60;1.70;;;11.90;97.20;;;;;;1748493;28;20206;-72
2022/09/28 07:09:21;;;;;;;2.70;2.17;;;11.90;97.20;;;;;;1742308;28;20245;-71
2022/09/28 07:10:12;;;;;;;2.67;2.15;;;11.90;97.20;;;;;;1741059;28;20199;-71
2022/09/28 07:11:06;;;;;;;2.80;1.55;;;11.90;97.20;;;;;;1741424;28;20302;-71
2022/09/28 07:11:58;;;;;;;2.63;1.95;;;11.90;97.20;;;;;;1740599;28;20577;-71
2022/09/28 07:12:50;;;;;;;1.80;1.45;;;11.90;97.20;;;;;;1740945;28;20628;-71
2022/09/28 07:13:40;;;;;;;1.60;1.42;;;11.90;97.20;;;;;;1738516;28;20590;-71
2022/09/28 07:14:33;;;;;;;3.60;1.70;;;11.90;97.20;;;;;;1738364;28;20570;-71
2022/09/28 07:15:24;;;;;;;2.33;1.33;;;11.80;97.20;;;;;;1739951;28;20199;-72
2022/09/28 07:16:16;;;;;;;3.38;1.35;;;11.80;97.20;;;;;;1737385;28;20208;-72
2022/09/28 07:17:07;;;;;;;1.40;1.15;;;11.80;97.20;;;;;;1739175;28;20689;-71
2022/09/28 07:17:59;;;;;;;2.72;1.27;;;11.80;97.20;;;;;;1741580;28;20203;-71
2022/09/28 07:18:50;;;;;;;2.17;1.50;;;11.80;97.20;;;;;;1741574;28;20214;-71
2022/09/28 07:19:43;;;;;;;2.40;1.20;;;11.80;97.20;;;;;;1741151;28;20916;-71
2022/09/28 07:20:35;;;;;;;2.10;1.20;;;11.80;97.20;;;;;;1741531;28;20619;-71
2022/09/28 07:21:27;;;;;;;2.35;1.10;;;11.80;97.20;;;;;;1746481;28;20653;-71
2022/09/28 07:22:18;;;;;;;1.85;1.27;;;11.80;97.20;;;;;;1745404;28;20218;-71
2022/09/28 07:23:10;;;;;;;1.65;1.10;;;11.70;97.20;;;;;;1741600;28;20203;-71
2022/09/28 07:24:01;;;;;;;1.42;1.23;;;11.70;97.20;;;;;;1741187;28;20195;-71
2022/09/28 07:24:53;;;;;;;2.30;2.10;;;11.70;97.20;;;;;;1740888;28;20729;-71
2022/09/28 07:25:46;;;;;;;2.55;1.20;;;11.70;97.20;;;;;;1740863;28;20210;-71
2022/09/28 07:26:38;;;;;;;3.10;1.40;;;11.70;97.20;;;;;;1741617;28;20295;-71
2022/09/28 07:27:28;;;;;;;3.42;1.50;;;11.70;97.20;;;;;;1741494;28;20246;-71
2022/09/28 07:28:21;;;;;;;1.57;1.07;;;11.70;97.20;;;;;;1741132;28;20214;-71
2022/09/28 07:29:12;;;;;;;2.45;1.20;;;11.70;97.20;;;;;;1738120;28;20195;-72
2022/09/28 07:30:04;;;;;;;2.27;1.43;;;11.70;97.20;;;;;;1738664;28;20201;-71
2022/09/28 07:30:56;;;;;;;2.72;1.55;;;11.70;97.20;;;;;;1741564;28;20255;-71
2022/09/28 07:31:47;;;;;;;2.42;1.30;;;11.70;97.20;;;;;;1741293;28;20245;-71
2022/09/28 07:32:39;;;;;;;2.35;1.10;;;11.70;97.20;;;;;;1746620;28;20706;-71
2022/09/28 07:33:31;;;;;;;2.00;1.20;;;11.70;97.20;;;;;;1748346;28;20289;-71
2022/09/28 07:34:22;;;;;;;2.63;1.00;;;11.70;97.20;;;;;;1748352;28;20202;-71
2022/09/28 07:35:16;;;;;;;1.50;1.10;;;11.70;97.20;;;;;;1748267;28;20194;-71
2022/09/28 07:36:07;;;;;;;1.70;1.20;;;11.70;97.20;;;;;;1743752;28;20199;-71
2022/09/28 07:36:59;;;;;;;2.15;1.10;;;11.70;97.20;;;;;;1736441;28;20211;-72
2022/09/28 07:37:58;;;;;;;4.15;1.33;;;11.70;97.20;;;;;;1745370;28;20424;-71
2022/09/28 07:38:50;;;;;;;2.97;1.30;;;11.70;97.20;;;;;;1734823;28;20255;-71
2022/09/28 07:42:00;;;;;;;2.47;1.30;;;11.70;97.20;;;;;;1747623;28;20198;-71
2022/09/28 07:42:50;;;;;;;3.00;1.70;;;11.70;97.20;;;;;;1747839;28;20273;-71
2022/09/28 07:43:42;;;;;;;3.27;1.47;;;11.70;97.20;;;;;;1748332;28;20292;-71
2022/09/28 07:44:35;;;;;;;3.58;1.77;;;11.60;97.20;;;;;;1747879;28;20209;-71
2022/09/28 07:45:28;;;;;;;2.25;1.73;;;11.70;97.20;;;;;;1748340;28;20649;-71
2022/09/28 07:46:20;;;;;;;2.13;1.45;;;11.70;97.20;;;;;;1748279;28;20229;-71
2022/09/28 07:47:11;;;;;;;2.00;1.70;;;11.70;97.20;;;;;;1748085;28;20202;-71
2022/09/28 07:48:03;;;;;;;2.65;1.90;;;11.70;97.20;;;;;;1747758;28;20267;-71
2022/09/28 07:48:54;;;;;;;2.75;1.60;;;11.60;97.20;;;;;;1743800;28;20222;-71
2022/09/28 07:49:45;;;;;;;2.47;2.00;;;11.70;97.20;;;;;;1740710;28;20203;-71
2022/09/28 07:50:38;;;;;;;2.53;1.70;;;11.70;97.20;;;;;;1741316;28;20198;-71
2022/09/28 07:51:29;;;;;;;1.75;1.50;;;11.70;97.20;;;;;;1741138;28;20278;-71
2022/09/28 07:52:23;;;;;;;2.67;1.80;;;11.70;97.20;;;;;;1741294;28;20215;-71
2022/09/28 07:53:14;;;;;;;1.88;1.77;;;11.70;97.20;;;;;;1738628;28;20583;-71
2022/09/28 07:54:06;;;;;;;3.20;2.10;;;11.70;97.20;;;;;;1738185;28;20278;-70
2022/09/28 07:54:57;;;;;;;2.58;1.85;;;11.70;97.20;;;;;;1738520;28;20438;-71
2022/09/28 07:55:52;;;;;;;3.77;2.30;;;11.70;97.20;;;;;;1738459;28;20188;-72
2022/09/28 07:56:44;;;;;;;2.05;1.75;;;11.70;97.20;;;;;;1737093;28;20453;-71
2022/09/28 07:57:35;;;;;;;2.85;1.77;;;11.70;97.20;;;;;;1740514;28;20619;-71
2022/09/28 07:58:26;;;;;;;1.65;1.40;;;11.70;97.20;;;;;;1743468;28;20200;-71
2022/09/28 07:59:18;;;;;;;2.55;1.52;;;11.70;97.20;;;;;;1741387;28;20199;-71
2022/09/28 08:00:11;;;;;;;2.85;1.95;;;11.70;97.20;;;;;;1740668;28;20265;-71
2022/09/28 08:01:04;;;;;;;2.03;1.35;;;11.70;97.20;;;;;;1741221;28;20219;-70
2022/09/28 08:01:57;;;;;;;3.75;1.30;;;11.70;97.20;;;;;;1736548;28;20828;-71
2022/09/28 08:02:48;;;;;;;2.28;1.42;;;11.70;97.20;;;;;;1738986;28;20202;-71
2022/09/28 08:03:43;;;;;;;2.33;1.40;;;11.70;97.20;;;;;;1747556;28;20198;-71
2022/09/28 08:04:34;;;;;;;2.20;1.40;;;11.70;97.20;;;;;;1730940;28;20200;-71
2022/09/28 08:05:30;;;;;;;1.77;1.60;;;11.70;97.20;;;;;;1731921;28;20208;-71
2022/09/28 08:06:22;;;;;;;2.45;1.52;;;11.70;97.20;;;;;;1739121;28;20203;-71
2022/09/28 08:07:17;;;;;;;1.45;1.23;;;11.70;97.20;;;;;;1735688;28;20659;-71
2022/09/28 08:08:08;;;;;;;1.52;1.15;;;11.70;97.20;;;;;;1733217;28;20204;-71
2022/09/28 08:09:00;;;;;;;4.30;1.50;;;11.70;97.20;;;;;;1739707;28;20191;-70
2022/09/28 08:09:51;;;;;;;1.65;1.35;;;11.70;97.20;;;;;;1737305;28;20200;-71
2022/09/28 08:10:44;;;;;;;2.63;1.43;;;11.70;97.20;;;;;;1747515;28;20194;-71
2022/09/28 08:11:35;;;;;;;1.90;1.50;;;11.70;97.20;;;;;;1740277;28;20215;-71
2022/09/28 08:12:26;;;;;;;2.70;2.00;;;11.70;97.20;;;;;;1740274;28;20219;-71
2022/09/28 08:13:17;;;;;;;2.60;1.90;;;11.70;97.20;;;;;;1746262;28;20202;-71
2022/09/28 08:14:11;;;;;;;2.97;1.30;;;11.80;97.20;;;;;;1747549;28;20271;-71
2022/09/28 08:15:03;;;;;;;4.05;1.48;;;11.80;97.20;;;;;;1747071;28;20207;-71
2022/09/28 08:15:59;;;;;;;2.33;1.73;;;11.80;97.20;;;;;;1747759;28;20225;-71
2022/09/28 08:16:51;;;;;;;3.00;1.60;;;11.80;97.20;;;;;;1747447;28;20222;-71
2022/09/28 08:17:47;;;;;;;2.65;1.50;;;11.90;97.20;;;;;;1747417;28;20285;-71
2022/09/28 08:18:38;;;;;;;2.03;1.15;;;11.90;97.20;;;;;;1747714;28;20286;-71
2022/09/28 08:21:43;;;;;;;2.00;1.23;;;11.90;97.20;;;;;;1745495;28;20256;-71
2022/09/28 08:21:53;;;;;;;2.08;1.70;;;11.90;97.20;;;;;;1741026;28;20582;-71
2022/09/28 08:22:44;;;;;;;3.05;1.48;;;12.00;97.20;;;;;;1741560;28;20207;-71
2022/09/28 08:23:36;;;;;;;1.90;1.57;;;12.00;97.20;;;;;;1745455;28;20220;-71
2022/09/28 08:24:29;;;;;;;3.40;2.13;;;12.00;97.20;;;;;;1747361;28;20239;-71
2022/09/28 08:25:21;;;;;;;1.85;1.40;;;12.10;97.20;;;;;;1744816;28;20203;-71
2022/09/28 08:26:12;;;;;;;1.75;1.65;;;12.10;97.20;;;;;;1741195;28;20198;-71
2022/09/28 08:27:04;;;;;;;3.10;2.07;;;12.10;97.20;;;;;;1741094;28;20197;-71
2022/09/28 08:27:55;;;;;;;1.88;1.52;;;12.10;97.20;;;;;;1738480;28;20206;-71
2022/09/28 08:28:46;;;;;;;2.33;1.60;;;12.20;97.20;;;;;;1734372;28;20211;-71
2022/09/28 08:29:37;;;;;;;1.90;1.52;;;12.20;97.20;;;;;;1734144;28;20884;-71
2022/09/28 08:30:30;;;;;;;2.03;1.33;;;12.20;97.20;;;;;;1734853;28;20225;-71
2022/09/28 08:31:21;;;;;;;4.35;1.50;;;12.20;97.20;;;;;;1741049;28;20520;-71
2022/09/28 08:32:13;;;;;;;1.83;1.50;;;12.30;97.20;;;;;;1741202;28;20214;-71
2022/09/28 08:33:06;;;;;;;3.17;1.55;;;12.30;97.20;;;;;;1741229;28;20290;-71
2022/09/28 08:33:58;;;;;;;2.10;1.23;;;12.30;97.20;;;;;;1741294;28;20282;-71
2022/09/28 08:34:49;;;;;;;2.15;1.40;;;12.30;97.20;;;;;;1741149;28;20217;-71
2022/09/28 08:35:41;;;;;;;1.97;1.50;;;12.30;97.20;;;;;;1741267;28;20195;-73
2022/09/28 08:36:33;;;;;;;1.65;1.52;;;12.30;97.20;;;;;;1741119;28;20525;-73
2022/09/28 08:37:26;;;;;;;2.28;1.45;;;12.30;97.20;;;;;;1740757;28;20210;-72
2022/09/28 08:38:17;;;;;;;4.97;1.40;;;12.30;97.20;;;;;;1740777;28;20208;-73
2022/09/28 08:39:08;;;;;;;2.00;1.47;;;12.30;97.20;;;;;;1741147;28;20209;-72
2022/09/28 08:39:59;;;;;;;2.38;1.88;;;12.30;97.20;;;;;;1740906;28;20789;-72
2022/09/28 08:41:03;;;;;;;2.03;1.40;;;12.40;97.20;;;;;;1741275;28;20261;-72
2022/09/28 08:42:05;;;;;;;2.45;1.90;;;12.40;97.20;;;;;;1741160;28;20438;-72
2022/09/28 08:43:01;;;;;;;2.38;1.50;;;12.50;97.20;;;;;;1741151;28;20194;-71
2022/09/28 08:43:59;;;;;;;2.70;1.50;;;12.50;97.20;;;;;;1741212;28;20209;-71
2022/09/28 08:44:56;;;;;;;3.42;1.58;;;12.50;97.20;;;;;;1741128;28;20199;-71
2022/09/28 08:45:47;;;;;;;1.83;1.40;;;12.50;97.20;;;;;;1741225;28;20199;-71
2022/09/28 08:46:44;;;;;;;3.00;1.40;;;12.50;97.20;;;;;;1741225;28;20589;-74
2022/09/28 08:48:57;;;;;;;2.25;1.60;;;12.60;97.20;;;;;;1741240;28;20256;-71
2022/09/28 08:49:49;;;;;;;4.22;1.77;;;12.60;97.20;;;;;;1740835;28;20199;-71
2022/09/28 08:50:47;;;;;;;3.28;1.42;;;12.60;97.20;;;;;;1741138;28;20203;-71
2022/09/28 08:51:45;;;;;;;2.13;1.40;;;12.60;97.20;;;;;;1741023;28;20645;-71
2022/09/28 08:52:39;;;;;;;2.40;1.35;;;12.60;97.20;;;;;;1741192;28;20223;-71
2022/09/28 08:53:37;;;;;;;3.65;1.70;;;12.60;97.20;;;;;;1741129;28;20203;-71
2022/09/28 08:54:36;;;;;;;1.85;1.60;;;12.60;97.20;;;;;;1741142;28;20662;-73
2022/09/28 08:55:31;;;;;;;2.47;1.50;;;12.70;97.20;;;;;;1741137;28;20321;-72
2022/09/28 08:56:29;;;;;;;3.03;1.63;;;12.70;97.20;;;;;;1742027;28;20585;-72
2022/09/28 08:57:25;;;;;;;3.85;1.75;;;12.70;97.20;;;;;;1742213;28;20233;-72
2022/09/28 08:58:22;;;;;;;1.40;1.30;;;12.70;97.20;;;;;;1736298;28;20219;-72
2022/09/28 08:59:18;;;;;;;4.07;1.35;;;12.70;97.20;;;;;;1741000;28;20261;-72
2022/09/28 09:00:21;;;;;;;4.60;1.10;;;12.70;97.20;;;;;;1740588;28;20207;-72
2022/09/28 09:01:17;;;;;;;1.67;1.45;;;12.70;97.20;;;;;;1738920;28;20693;-73
2022/09/28 09:02:15;;;;;;;2.70;1.55;;;12.70;97.20;;;;;;1740671;28;20692;-72
2022/09/28 09:03:11;;;;;;;3.50;1.40;;;12.70;97.20;;;;;;1741129;28;20278;-72
2022/09/28 09:04:05;;;;;;;2.00;1.50;;;12.70;97.20;;;;;;1741060;28;20203;-72
2022/09/28 09:04:58;;;;;;;3.33;1.70;;;12.70;97.20;;;;;;1747498;28;20581;-72
2022/09/28 09:05:59;;;;;;;4.68;1.90;;;12.70;97.20;;;;;;1746314;28;20745;-72
2022/09/28 09:07:27;;;;;;;3.85;1.50;;;12.70;97.20;;;;;;1734063;28;20196;-72
2022/09/28 09:08:38;;;;;;;1.70;1.20;;;12.70;97.20;;;;;;1734115;28;20219;-74
2022/09/28 09:09:38;;;;;;;3.40;1.40;;;12.70;97.20;;;;;;1740059;28;20200;-73
2022/09/28 09:10:46;;;;;;;3.50;1.50;;;12.70;97.20;;;;;;1741148;28;20657;-72
2022/09/28 09:11:57;;;;;;;3.88;1.90;;;12.70;97.20;;;;;;1747719;28;20651;-72
2022/09/28 09:12:59;;;;;;;2.13;1.55;;;12.70;97.20;;;;;;1747842;28;20214;-73
2022/09/28 09:14:20;;;;;;;1.60;1.40;;;12.70;97.20;;;;;;1733566;28;20275;-73
2022/09/28 09:15:23;;;;;;;1.80;1.27;;;12.70;97.20;;;;;;1747669;28;20226;-73
2022/09/28 09:16:27;;;;;;;2.53;1.40;;;12.70;97.20;;;;;;1746159;28;20202;-73
2022/09/28 09:17:26;;;;;;;2.10;1.60;;;12.70;97.20;;;;;;1741180;28;20211;-73
2022/09/28 09:18:26;;;;;;;3.60;1.90;;;12.70;97.20;;;;;;1734295;28;20195;-73
2022/09/28 09:19:34;;;;;;;2.67;1.42;;;12.60;97.20;;;;;;1734079;28;20200;-73
2022/09/28 09:20:36;;;;;;;2.28;1.60;;;12.60;97.20;;;;;;1734321;28;20204;-73
2022/09/28 09:21:39;;;;;;;2.35;1.50;;;12.60;97.20;;;;;;1737194;28;20279;-73
2022/09/28 09:22:39;;;;;;;3.72;1.52;;;12.60;97.20;;;;;;1747534;28;20202;-73
2022/09/28 09:23:37;;;;;;;2.50;1.27;;;12.60;97.20;;;;;;1742044;28;20347;-73
2022/09/28 09:24:40;;;;;;;5.35;2.17;;;12.60;97.20;;;;;;1741106;28;20240;-73
2022/09/28 09:25:48;;;;;;;2.83;1.75;;;12.60;97.20;;;;;;1747995;28;20580;-72
2022/09/28 09:26:40;;;;;;;2.22;1.75;;;12.70;97.20;;;;;;1748991;28;20198;-73
2022/09/28 09:27:48;;;;;;;2.78;1.98;;;12.70;97.20;;;;;;1742279;28;20223;-73
2022/09/28 09:29:02;;;;;;;3.67;2.00;;;12.70;97.20;;;;;;1741038;28;20243;-73
2022/09/28 09:30:05;;;;;;;2.90;1.50;;;12.70;97.20;;;;;;1743560;28;20194;-73
2022/09/28 09:31:05;;;;;;;4.13;2.20;;;12.80;97.20;;;;;;1747307;28;20265;-74
2022/09/28 09:32:11;;;;;;;2.08;1.63;;;12.80;97.20;;;;;;1740916;28;20269;-73
2022/09/28 09:33:23;;;;;;;3.78;1.65;;;12.80;97.20;;;;;;1741197;28;20199;-73
2022/09/28 09:34:51;;;;;;;1.80;1.65;;;12.80;97.20;;;;;;1740519;28;20257;-73
2022/09/28 09:35:58;;;;;;;3.08;1.50;;;12.80;97.20;;;;;;1721514;28;20284;-73
2022/09/28 09:37:05;;;;;;;5.65;2.60;;;12.80;97.20;;;;;;1733411;28;20207;-73
2022/09/28 09:38:06;;;;;;;2.33;1.60;;;12.80;97.20;;;;;;1735472;28;20223;-74
2022/09/28 09:39:11;;;;;;;1.70;1.60;;;12.80;97.20;;;;;;1734367;28;20200;-74
2022/09/28 09:40:24;;;;;;;2.40;1.52;;;12.90;97.20;;;;;;1733904;28;20204;-74
2022/09/28 09:41:30;;;;;;;2.95;1.90;;;12.90;97.20;;;;;;1736719;28;20196;-74
2022/09/28 09:42:37;;;;;;;3.90;2.60;;;12.90;97.20;;;;;;1741034;28;20223;-73
2022/09/28 09:43:52;;;;;;;5.97;3.20;;;12.90;97.20;;;;;;1745784;28;20198;-73
2022/09/28 09:44:59;;;;;;;3.60;2.58;;;12.80;97.20;;;;;;1747640;28;20206;-73
2022/09/28 09:46:04;;;;;;;3.30;2.30;;;12.80;97.20;;;;;;1747880;28;20206;-73
2022/09/28 09:47:03;;;;;;;4.15;3.17;;;12.80;97.20;;;;;;1733551;28;20196;-73
2022/09/28 09:47:59;;;;;;;2.45;2.10;;;12.80;97.20;;;;;;1733601;28;20625;-73
2022/09/28 09:48:57;;;;;;;3.25;2.30;;;12.80;97.20;;;;;;1736812;28;20188;-73